This is the latest recevied weather packets stored in our database for station/object VK2BNC-13. If no packets are shown the sender has not sent any weather packets the latest 10 day(s).
| Time | Temp. | Humidity | Pressure | Rain* | Wind** | Luminosity | Snow |
|---|---|---|---|---|---|---|---|
| 1777784408 | 25.56° C | 56% | - | 0 mm | - | - | - |
| 1777783507 | 25.56° C | 56% | - | 0 mm | - | - | - |
| 1777782604 | 25.56° C | 55% | - | 0 mm | - | - | - |
| 1777781704 | 25.56° C | 55% | - | 0 mm | - | - | - |
| 1777780804 | 25° C | 55% | - | 0 mm | - | - | - |
| 1777779904 | 25.56° C | 57% | - | 0 mm | - | - | - |
| 1777779004 | 25° C | 57% | - | 0 mm | - | - | - |
| 1777778104 | 25° C | 61% | - | 0 mm | - | - | - |
| 1777777204 | 24.44° C | 62% | - | 0 mm | - | - | - |
| 1777776304 | 24.44° C | 62% | - | 0 mm | - | - | - |
| 1777775403 | 23.89° C | 64% | - | 0 mm | - | - | - |
| 1777774504 | 23.89° C | 64% | - | 0 mm | - | - | - |
| 1777773606 | 23.33° C | 66% | - | 0 mm | - | - | - |
| 1777772704 | 23.33° C | 67% | - | 0 mm | - | - | - |
| 1777770904 | 22.78° C | 70% | - | 0 mm | - | - | - |
| 1777770004 | 21.67° C | 74% | - | 0 mm | - | - | - |
| 1777769106 | 21.67° C | 76% | - | 0 mm | - | - | - |
| 1777768204 | 21.11° C | 78% | - | 0 mm | - | - | - |
| 1777767304 | 20.56° C | 82% | - | 0 mm | - | - | - |
| 1777766404 | 19.44° C | 86% | - | 0 mm | - | - | - |
| 1777765503 | 18.33° C | 93% | - | 0 mm | - | - | - |
| 1777764603 | 17.78° C | 96% | - | 0 mm | - | - | - |
| 1777763704 | 17.22° C | 96% | - | 0 mm | - | - | - |
| 1777762804 | 16.67° C | 97% | - | 0 mm | - | - | - |
| 1777761899 | 16.11° C | 97% | - | 0 mm | - | - | - |
* Rain latest hour (hover to see other rain measurements)
** Current wind speed in m/s (hover to see current wind gust speed)